sensor_id;sensor_type;location;lat;lon;timestamp;P1;durP1;ratioP1;P2;durP2;ratioP2
37231;SDS011;23125;48.156;15.954;2024-03-06T00:01:07;18.58;;;10.23;;
37231;SDS011;23125;48.156;15.954;2024-03-06T00:03:32;17.17;;;10.50;;
37231;SDS011;23125;48.156;15.954;2024-03-06T00:06:05;19.23;;;10.93;;
37231;SDS011;23125;48.156;15.954;2024-03-06T00:08:30;19.02;;;11.32;;
37231;SDS011;23125;48.156;15.954;2024-03-06T00:10:56;18.35;;;11.05;;
37231;SDS011;23125;48.156;15.954;2024-03-06T00:13:22;20.58;;;10.98;;
37231;SDS011;23125;48.156;15.954;2024-03-06T00:15:48;18.95;;;9.80;;
37231;SDS011;23125;48.156;15.954;2024-03-06T00:18:14;17.02;;;10.90;;
37231;SDS011;23125;48.156;15.954;2024-03-06T00:20:40;16.65;;;10.00;;
37231;SDS011;23125;48.156;15.954;2024-03-06T00:23:07;17.10;;;9.55;;
37231;SDS011;23125;48.156;15.954;2024-03-06T00:25:33;20.08;;;10.98;;
37231;SDS011;23125;48.156;15.954;2024-03-06T00:27:59;16.38;;;10.07;;
37231;SDS011;23125;48.156;15.954;2024-03-06T00:30:25;16.75;;;10.32;;
37231;SDS011;23125;48.156;15.954;2024-03-06T00:32:51;15.95;;;9.35;;
37231;SDS011;23125;48.156;15.954;2024-03-06T00:35:17;17.15;;;10.00;;
37231;SDS011;23125;48.156;15.954;2024-03-06T00:37:44;16.75;;;10.40;;
37231;SDS011;23125;48.156;15.954;2024-03-06T00:40:10;15.13;;;10.02;;
37231;SDS011;23125;48.156;15.954;2024-03-06T00:42:37;15.63;;;9.68;;
37231;SDS011;23125;48.156;15.954;2024-03-06T00:45:05;16.90;;;9.57;;
37231;SDS011;23125;48.156;15.954;2024-03-06T00:47:31;17.80;;;9.73;;
37231;SDS011;23125;48.156;15.954;2024-03-06T00:49:59;17.73;;;10.10;;
37231;SDS011;23125;48.156;15.954;2024-03-06T00:52:26;19.63;;;10.65;;
37231;SDS011;23125;48.156;15.954;2024-03-06T00:54:52;18.30;;;10.43;;
37231;SDS011;23125;48.156;15.954;2024-03-06T00:57:18;17.83;;;9.80;;
37231;SDS011;23125;48.156;15.954;2024-03-06T00:59:44;17.73;;;10.30;;
37231;SDS011;23125;48.156;15.954;2024-03-06T01:02:09;16.38;;;10.13;;
37231;SDS011;23125;48.156;15.954;2024-03-06T01:04:35;17.98;;;10.25;;
37231;SDS011;23125;48.156;15.954;2024-03-06T01:07:01;18.67;;;10.98;;
37231;SDS011;23125;48.156;15.954;2024-03-06T01:09:27;18.88;;;9.98;;
37231;SDS011;23125;48.156;15.954;2024-03-06T01:11:53;18.48;;;9.88;;
37231;SDS011;23125;48.156;15.954;2024-03-06T01:14:18;16.25;;;9.50;;
37231;SDS011;23125;48.156;15.954;2024-03-06T01:16:44;18.50;;;10.50;;
37231;SDS011;23125;48.156;15.954;2024-03-06T01:19:10;18.02;;;9.75;;
37231;SDS011;23125;48.156;15.954;2024-03-06T01:21:36;17.42;;;10.05;;
37231;SDS011;23125;48.156;15.954;2024-03-06T01:24:03;16.77;;;9.50;;
37231;SDS011;23125;48.156;15.954;2024-03-06T01:26:29;18.65;;;10.88;;
37231;SDS011;23125;48.156;15.954;2024-03-06T01:28:55;19.00;;;10.13;;
37231;SDS011;23125;48.156;15.954;2024-03-06T01:31:21;19.67;;;11.45;;
37231;SDS011;23125;48.156;15.954;2024-03-06T01:33:47;17.98;;;10.32;;
37231;SDS011;23125;48.156;15.954;2024-03-06T01:36:13;19.90;;;12.13;;
37231;SDS011;23125;48.156;15.954;2024-03-06T01:38:38;17.77;;;10.38;;
37231;SDS011;23125;48.156;15.954;2024-03-06T01:41:04;18.75;;;11.13;;
37231;SDS011;23125;48.156;15.954;2024-03-06T01:43:36;22.17;;;11.63;;
37231;SDS011;23125;48.156;15.954;2024-03-06T01:46:03;19.70;;;11.55;;
37231;SDS011;23125;48.156;15.954;2024-03-06T01:48:29;21.52;;;10.95;;
37231;SDS011;23125;48.156;15.954;2024-03-06T01:50:58;18.17;;;11.32;;
37231;SDS011;23125;48.156;15.954;2024-03-06T01:53:28;21.98;;;11.50;;
37231;SDS011;23125;48.156;15.954;2024-03-06T01:55:55;18.58;;;10.60;;
37231;SDS011;23125;48.156;15.954;2024-03-06T01:58:23;20.25;;;10.18;;
37231;SDS011;23125;48.156;15.954;2024-03-06T02:00:49;19.10;;;11.20;;
37231;SDS011;23125;48.156;15.954;2024-03-06T02:03:17;20.23;;;11.80;;
37231;SDS011;23125;48.156;15.954;2024-03-06T02:05:44;19.33;;;11.02;;
37231;SDS011;23125;48.156;15.954;2024-03-06T02:08:12;22.20;;;11.88;;
37231;SDS011;23125;48.156;15.954;2024-03-06T02:10:38;22.83;;;11.88;;
37231;SDS011;23125;48.156;15.954;2024-03-06T02:13:03;21.85;;;11.63;;
37231;SDS011;23125;48.156;15.954;2024-03-06T02:15:29;20.80;;;11.40;;
37231;SDS011;23125;48.156;15.954;2024-03-06T02:17:55;19.63;;;11.27;;
37231;SDS011;23125;48.156;15.954;2024-03-06T02:20:24;22.33;;;11.30;;
37231;SDS011;23125;48.156;15.954;2024-03-06T02:22:50;18.42;;;11.15;;
37231;SDS011;23125;48.156;15.954;2024-03-06T02:25:17;20.60;;;10.98;;
37231;SDS011;23125;48.156;15.954;2024-03-06T02:27:44;19.25;;;10.43;;
37231;SDS011;23125;48.156;15.954;2024-03-06T02:30:10;19.55;;;11.23;;
37231;SDS011;23125;48.156;15.954;2024-03-06T02:32:36;21.08;;;11.10;;
37231;SDS011;23125;48.156;15.954;2024-03-06T02:35:03;20.65;;;10.75;;
37231;SDS011;23125;48.156;15.954;2024-03-06T02:37:33;20.95;;;12.07;;
37231;SDS011;23125;48.156;15.954;2024-03-06T02:39:59;22.58;;;12.35;;
37231;SDS011;23125;48.156;15.954;2024-03-06T02:42:27;24.27;;;12.35;;
37231;SDS011;23125;48.156;15.954;2024-03-06T02:44:54;17.65;;;11.55;;
37231;SDS011;23125;48.156;15.954;2024-03-06T02:47:20;25.40;;;12.48;;
37231;SDS011;23125;48.156;15.954;2024-03-06T02:49:45;22.40;;;11.65;;
37231;SDS011;23125;48.156;15.954;2024-03-06T02:52:11;20.70;;;11.20;;
37231;SDS011;23125;48.156;15.954;2024-03-06T02:54:37;18.30;;;11.18;;
37231;SDS011;23125;48.156;15.954;2024-03-06T02:57:05;19.58;;;11.65;;
37231;SDS011;23125;48.156;15.954;2024-03-06T02:59:32;21.35;;;11.70;;
37231;SDS011;23125;48.156;15.954;2024-03-06T03:01:58;20.88;;;12.73;;
37231;SDS011;23125;48.156;15.954;2024-03-06T03:04:24;21.70;;;11.65;;
37231;SDS011;23125;48.156;15.954;2024-03-06T03:06:51;23.27;;;12.63;;
37231;SDS011;23125;48.156;15.954;2024-03-06T03:09:17;21.20;;;11.90;;
37231;SDS011;23125;48.156;15.954;2024-03-06T03:11:43;20.90;;;11.65;;
37231;SDS011;23125;48.156;15.954;2024-03-06T03:14:09;21.13;;;11.40;;
37231;SDS011;23125;48.156;15.954;2024-03-06T03:16:35;19.98;;;11.73;;
37231;SDS011;23125;48.156;15.954;2024-03-06T03:19:01;21.17;;;12.45;;
37231;SDS011;23125;48.156;15.954;2024-03-06T03:21:27;21.55;;;11.90;;
37231;SDS011;23125;48.156;15.954;2024-03-06T03:23:53;20.80;;;11.70;;
37231;SDS011;23125;48.156;15.954;2024-03-06T03:26:19;24.67;;;12.65;;
37231;SDS011;23125;48.156;15.954;2024-03-06T03:28:45;24.48;;;13.02;;
37231;SDS011;23125;48.156;15.954;2024-03-06T03:31:11;20.15;;;11.43;;
37231;SDS011;23125;48.156;15.954;2024-03-06T03:33:40;20.63;;;12.35;;
37231;SDS011;23125;48.156;15.954;2024-03-06T03:36:07;22.67;;;12.82;;
37231;SDS011;23125;48.156;15.954;2024-03-06T03:38:35;21.75;;;11.95;;
37231;SDS011;23125;48.156;15.954;2024-03-06T03:41:08;21.80;;;13.07;;
37231;SDS011;23125;48.156;15.954;2024-03-06T03:43:35;26.92;;;12.70;;
37231;SDS011;23125;48.156;15.954;2024-03-06T03:46:01;21.55;;;12.18;;
37231;SDS011;23125;48.156;15.954;2024-03-06T03:48:29;24.00;;;12.63;;
37231;SDS011;23125;48.156;15.954;2024-03-06T03:50:56;25.88;;;13.75;;
37231;SDS011;23125;48.156;15.954;2024-03-06T03:53:22;39.78;;;19.10;;
37231;SDS011;23125;48.156;15.954;2024-03-06T03:55:48;25.95;;;13.63;;
37231;SDS011;23125;48.156;15.954;2024-03-06T03:58:14;29.58;;;16.05;;
37231;SDS011;23125;48.156;15.954;2024-03-06T04:00:40;31.83;;;16.85;;
37231;SDS011;23125;48.156;15.954;2024-03-06T04:03:06;32.20;;;18.35;;
37231;SDS011;23125;48.156;15.954;2024-03-06T04:05:32;39.05;;;20.42;;
37231;SDS011;23125;48.156;15.954;2024-03-06T04:07:58;33.00;;;18.40;;
37231;SDS011;23125;48.156;15.954;2024-03-06T04:10:24;39.55;;;19.70;;
37231;SDS011;23125;48.156;15.954;2024-03-06T04:12:49;44.30;;;21.73;;
37231;SDS011;23125;48.156;15.954;2024-03-06T04:15:15;48.80;;;23.42;;
37231;SDS011;23125;48.156;15.954;2024-03-06T04:17:41;47.78;;;22.77;;
37231;SDS011;23125;48.156;15.954;2024-03-06T04:20:07;52.55;;;22.60;;
37231;SDS011;23125;48.156;15.954;2024-03-06T04:22:37;41.63;;;22.15;;
37231;SDS011;23125;48.156;15.954;2024-03-06T04:25:05;43.58;;;22.83;;
37231;SDS011;23125;48.156;15.954;2024-03-06T04:27:31;47.03;;;23.23;;
37231;SDS011;23125;48.156;15.954;2024-03-06T04:29:58;46.90;;;22.15;;
37231;SDS011;23125;48.156;15.954;2024-03-06T04:32:24;51.05;;;23.38;;
37231;SDS011;23125;48.156;15.954;2024-03-06T04:34:49;48.05;;;23.00;;
37231;SDS011;23125;48.156;15.954;2024-03-06T04:37:15;46.35;;;21.63;;
37231;SDS011;23125;48.156;15.954;2024-03-06T04:39:41;44.70;;;22.23;;
37231;SDS011;23125;48.156;15.954;2024-03-06T04:42:07;42.70;;;20.85;;
37231;SDS011;23125;48.156;15.954;2024-03-06T04:44:36;44.30;;;22.02;;
37231;SDS011;23125;48.156;15.954;2024-03-06T04:47:01;43.97;;;22.27;;
37231;SDS011;23125;48.156;15.954;2024-03-06T04:49:27;47.65;;;22.60;;
37231;SDS011;23125;48.156;15.954;2024-03-06T04:51:53;43.22;;;20.98;;
37231;SDS011;23125;48.156;15.954;2024-03-06T04:54:19;41.83;;;20.90;;
37231;SDS011;23125;48.156;15.954;2024-03-06T04:56:45;40.45;;;19.35;;
37231;SDS011;23125;48.156;15.954;2024-03-06T04:59:11;40.08;;;19.65;;
37231;SDS011;23125;48.156;15.954;2024-03-06T05:01:36;45.63;;;21.83;;
37231;SDS011;23125;48.156;15.954;2024-03-06T05:04:02;41.55;;;19.77;;
37231;SDS011;23125;48.156;15.954;2024-03-06T05:06:29;40.33;;;19.95;;
37231;SDS011;23125;48.156;15.954;2024-03-06T05:08:55;41.67;;;21.30;;
37231;SDS011;23125;48.156;15.954;2024-03-06T05:11:20;36.28;;;18.38;;
37231;SDS011;23125;48.156;15.954;2024-03-06T05:13:46;40.50;;;20.13;;
37231;SDS011;23125;48.156;15.954;2024-03-06T05:16:12;39.55;;;19.33;;
37231;SDS011;23125;48.156;15.954;2024-03-06T05:18:38;33.15;;;17.88;;
37231;SDS011;23125;48.156;15.954;2024-03-06T05:21:03;37.53;;;18.20;;
37231;SDS011;23125;48.156;15.954;2024-03-06T05:23:29;37.63;;;19.23;;
37231;SDS011;23125;48.156;15.954;2024-03-06T05:25:55;40.15;;;19.65;;
37231;SDS011;23125;48.156;15.954;2024-03-06T05:28:21;37.90;;;19.70;;
37231;SDS011;23125;48.156;15.954;2024-03-06T05:30:47;39.75;;;19.73;;
37231;SDS011;23125;48.156;15.954;2024-03-06T05:33:13;40.33;;;19.92;;
37231;SDS011;23125;48.156;15.954;2024-03-06T05:35:38;41.42;;;19.27;;
37231;SDS011;23125;48.156;15.954;2024-03-06T05:38:04;36.10;;;19.20;;
37231;SDS011;23125;48.156;15.954;2024-03-06T05:40:32;41.65;;;20.02;;
37231;SDS011;23125;48.156;15.954;2024-03-06T05:43:02;42.28;;;20.10;;
37231;SDS011;23125;48.156;15.954;2024-03-06T05:45:29;37.28;;;19.13;;
37231;SDS011;23125;48.156;15.954;2024-03-06T05:47:54;33.65;;;17.83;;
37231;SDS011;23125;48.156;15.954;2024-03-06T05:50:20;38.15;;;19.67;;
37231;SDS011;23125;48.156;15.954;2024-03-06T05:52:46;35.80;;;18.60;;
37231;SDS011;23125;48.156;15.954;2024-03-06T05:55:12;36.25;;;17.35;;
37231;SDS011;23125;48.156;15.954;2024-03-06T05:57:38;35.40;;;17.42;;
37231;SDS011;23125;48.156;15.954;2024-03-06T06:00:04;36.88;;;18.15;;
37231;SDS011;23125;48.156;15.954;2024-03-06T06:02:36;35.83;;;18.67;;
37231;SDS011;23125;48.156;15.954;2024-03-06T06:05:02;38.30;;;19.02;;
37231;SDS011;23125;48.156;15.954;2024-03-06T06:07:29;36.42;;;19.23;;
37231;SDS011;23125;48.156;15.954;2024-03-06T06:09:55;36.47;;;18.65;;
37231;SDS011;23125;48.156;15.954;2024-03-06T06:12:21;35.67;;;18.70;;
37231;SDS011;23125;48.156;15.954;2024-03-06T06:14:46;37.30;;;18.13;;
37231;SDS011;23125;48.156;15.954;2024-03-06T06:17:12;35.50;;;18.50;;
37231;SDS011;23125;48.156;15.954;2024-03-06T06:19:41;36.15;;;17.92;;
37231;SDS011;23125;48.156;15.954;2024-03-06T06:22:09;36.90;;;17.88;;
37231;SDS011;23125;48.156;15.954;2024-03-06T06:24:36;34.60;;;17.08;;
37231;SDS011;23125;48.156;15.954;2024-03-06T06:27:03;32.53;;;15.88;;
37231;SDS011;23125;48.156;15.954;2024-03-06T06:29:30;34.28;;;17.17;;
37231;SDS011;23125;48.156;15.954;2024-03-06T06:31:56;32.13;;;16.38;;
37231;SDS011;23125;48.156;15.954;2024-03-06T06:34:22;35.45;;;16.75;;
37231;SDS011;23125;48.156;15.954;2024-03-06T06:36:53;32.78;;;15.02;;
37231;SDS011;23125;48.156;15.954;2024-03-06T06:39:19;29.02;;;15.18;;
37231;SDS011;23125;48.156;15.954;2024-03-06T06:41:45;27.00;;;14.77;;
37231;SDS011;23125;48.156;15.954;2024-03-06T06:44:11;29.60;;;14.82;;
37231;SDS011;23125;48.156;15.954;2024-03-06T06:46:36;27.92;;;14.80;;
37231;SDS011;23125;48.156;15.954;2024-03-06T06:49:03;30.70;;;14.50;;
37231;SDS011;23125;48.156;15.954;2024-03-06T06:51:29;25.90;;;14.00;;
37231;SDS011;23125;48.156;15.954;2024-03-06T06:53:55;30.73;;;15.23;;
37231;SDS011;23125;48.156;15.954;2024-03-06T06:56:21;29.85;;;15.10;;
37231;SDS011;23125;48.156;15.954;2024-03-06T06:58:49;28.58;;;14.77;;
37231;SDS011;23125;48.156;15.954;2024-03-06T07:01:15;24.83;;;13.82;;
37231;SDS011;23125;48.156;15.954;2024-03-06T07:03:42;27.88;;;14.45;;
37231;SDS011;23125;48.156;15.954;2024-03-06T07:06:08;24.75;;;14.20;;
37231;SDS011;23125;48.156;15.954;2024-03-06T07:08:35;28.45;;;13.38;;
37231;SDS011;23125;48.156;15.954;2024-03-06T07:11:02;26.15;;;13.40;;
37231;SDS011;23125;48.156;15.954;2024-03-06T07:13:28;24.88;;;13.50;;
37231;SDS011;23125;48.156;15.954;2024-03-06T07:15:54;29.55;;;14.80;;
37231;SDS011;23125;48.156;15.954;2024-03-06T07:18:20;26.65;;;14.65;;
37231;SDS011;23125;48.156;15.954;2024-03-06T07:20:46;28.92;;;13.73;;
37231;SDS011;23125;48.156;15.954;2024-03-06T07:23:12;25.50;;;12.98;;
37231;SDS011;23125;48.156;15.954;2024-03-06T07:25:38;24.05;;;13.10;;
37231;SDS011;23125;48.156;15.954;2024-03-06T07:28:04;24.90;;;13.88;;
37231;SDS011;23125;48.156;15.954;2024-03-06T07:30:30;24.35;;;14.18;;
37231;SDS011;23125;48.156;15.954;2024-03-06T07:32:56;23.85;;;13.55;;
37231;SDS011;23125;48.156;15.954;2024-03-06T07:35:22;28.50;;;13.95;;
37231;SDS011;23125;48.156;15.954;2024-03-06T07:37:48;27.58;;;14.88;;
37231;SDS011;23125;48.156;15.954;2024-03-06T07:40:14;23.83;;;13.05;;
37231;SDS011;23125;48.156;15.954;2024-03-06T07:42:40;25.83;;;13.75;;
37231;SDS011;23125;48.156;15.954;2024-03-06T07:45:06;25.85;;;12.90;;
37231;SDS011;23125;48.156;15.954;2024-03-06T07:47:34;26.38;;;13.25;;
37231;SDS011;23125;48.156;15.954;2024-03-06T07:50:00;22.00;;;13.13;;
37231;SDS011;23125;48.156;15.954;2024-03-06T07:52:25;26.17;;;12.90;;
37231;SDS011;23125;48.156;15.954;2024-03-06T07:54:51;23.10;;;13.52;;
37231;SDS011;23125;48.156;15.954;2024-03-06T07:57:17;25.20;;;13.02;;
37231;SDS011;23125;48.156;15.954;2024-03-06T07:59:43;25.08;;;13.93;;
37231;SDS011;23125;48.156;15.954;2024-03-06T08:02:09;23.02;;;13.02;;
37231;SDS011;23125;48.156;15.954;2024-03-06T08:04:35;24.17;;;13.15;;
37231;SDS011;23125;48.156;15.954;2024-03-06T08:07:01;21.33;;;12.60;;
37231;SDS011;23125;48.156;15.954;2024-03-06T08:09:27;21.17;;;12.20;;
37231;SDS011;23125;48.156;15.954;2024-03-06T08:11:53;21.50;;;12.23;;
37231;SDS011;23125;48.156;15.954;2024-03-06T08:14:20;20.23;;;12.40;;
37231;SDS011;23125;48.156;15.954;2024-03-06T08:16:46;22.92;;;13.63;;
37231;SDS011;23125;48.156;15.954;2024-03-06T08:19:12;21.05;;;12.52;;
37231;SDS011;23125;48.156;15.954;2024-03-06T08:21:38;23.65;;;12.48;;
37231;SDS011;23125;48.156;15.954;2024-03-06T08:24:04;21.42;;;12.93;;
37231;SDS011;23125;48.156;15.954;2024-03-06T08:26:30;21.13;;;12.25;;
37231;SDS011;23125;48.156;15.954;2024-03-06T08:28:55;20.65;;;11.82;;
37231;SDS011;23125;48.156;15.954;2024-03-06T08:31:21;19.75;;;12.77;;
37231;SDS011;23125;48.156;15.954;2024-03-06T08:33:47;19.13;;;12.82;;
37231;SDS011;23125;48.156;15.954;2024-03-06T08:36:13;20.17;;;11.80;;
37231;SDS011;23125;48.156;15.954;2024-03-06T08:38:39;15.65;;;10.38;;
37231;SDS011;23125;48.156;15.954;2024-03-06T08:41:06;19.30;;;11.20;;
37231;SDS011;23125;48.156;15.954;2024-03-06T08:43:32;18.67;;;11.75;;
37231;SDS011;23125;48.156;15.954;2024-03-06T08:45:58;19.55;;;11.85;;
37231;SDS011;23125;48.156;15.954;2024-03-06T08:48:24;17.58;;;12.15;;
37231;SDS011;23125;48.156;15.954;2024-03-06T08:50:50;19.85;;;12.27;;
37231;SDS011;23125;48.156;15.954;2024-03-06T08:53:16;19.80;;;12.15;;
37231;SDS011;23125;48.156;15.954;2024-03-06T08:55:42;18.45;;;12.05;;
37231;SDS011;23125;48.156;15.954;2024-03-06T08:58:08;17.40;;;11.10;;
37231;SDS011;23125;48.156;15.954;2024-03-06T09:00:34;17.48;;;11.38;;
37231;SDS011;23125;48.156;15.954;2024-03-06T09:03:00;19.23;;;12.05;;
37231;SDS011;23125;48.156;15.954;2024-03-06T09:05:26;18.00;;;11.70;;
37231;SDS011;23125;48.156;15.954;2024-03-06T09:07:52;19.50;;;11.68;;
37231;SDS011;23125;48.156;15.954;2024-03-06T09:10:18;18.10;;;11.90;;
37231;SDS011;23125;48.156;15.954;2024-03-06T09:12:44;18.92;;;12.23;;
37231;SDS011;23125;48.156;15.954;2024-03-06T09:15:11;21.42;;;12.77;;
37231;SDS011;23125;48.156;15.954;2024-03-06T09:17:37;18.92;;;12.23;;
37231;SDS011;23125;48.156;15.954;2024-03-06T09:20:04;24.42;;;13.80;;
37231;SDS011;23125;48.156;15.954;2024-03-06T09:22:41;20.27;;;11.73;;
37231;SDS011;23125;48.156;15.954;2024-03-06T09:25:07;22.00;;;13.02;;
37231;SDS011;23125;48.156;15.954;2024-03-06T09:27:34;22.13;;;13.70;;
37231;SDS011;23125;48.156;15.954;2024-03-06T09:30:01;20.25;;;12.70;;
37231;SDS011;23125;48.156;15.954;2024-03-06T09:32:28;21.73;;;13.68;;
37231;SDS011;23125;48.156;15.954;2024-03-06T09:34:54;21.15;;;12.90;;
37231;SDS011;23125;48.156;15.954;2024-03-06T09:37:19;22.77;;;13.50;;
37231;SDS011;23125;48.156;15.954;2024-03-06T09:39:45;20.60;;;13.25;;
37231;SDS011;23125;48.156;15.954;2024-03-06T09:42:16;20.80;;;12.73;;
37231;SDS011;23125;48.156;15.954;2024-03-06T09:44:43;24.27;;;13.43;;
37231;SDS011;23125;48.156;15.954;2024-03-06T09:47:11;20.88;;;12.68;;
37231;SDS011;23125;48.156;15.954;2024-03-06T09:49:41;19.80;;;12.68;;
37231;SDS011;23125;48.156;15.954;2024-03-06T09:52:08;18.52;;;12.15;;
37231;SDS011;23125;48.156;15.954;2024-03-06T09:54:35;20.88;;;13.45;;
37231;SDS011;23125;48.156;15.954;2024-03-06T09:57:03;18.90;;;12.50;;
37231;SDS011;23125;48.156;15.954;2024-03-06T09:59:29;22.02;;;12.30;;
37231;SDS011;23125;48.156;15.954;2024-03-06T10:01:58;18.23;;;12.35;;
37231;SDS011;23125;48.156;15.954;2024-03-06T10:04:32;17.73;;;11.43;;
37231;SDS011;23125;48.156;15.954;2024-03-06T10:07:02;21.95;;;12.50;;
37231;SDS011;23125;48.156;15.954;2024-03-06T10:09:29;19.55;;;11.90;;
37231;SDS011;23125;48.156;15.954;2024-03-06T10:11:58;21.08;;;12.93;;
37231;SDS011;23125;48.156;15.954;2024-03-06T10:14:24;19.35;;;11.98;;
37231;SDS011;23125;48.156;15.954;2024-03-06T10:19:22;18.63;;;10.93;;
37231;SDS011;23125;48.156;15.954;2024-03-06T10:21:49;17.63;;;11.70;;
37231;SDS011;23125;48.156;15.954;2024-03-06T10:29:14;18.73;;;11.18;;
37231;SDS011;23125;48.156;15.954;2024-03-06T10:31:46;18.85;;;12.57;;
37231;SDS011;23125;48.156;15.954;2024-03-06T10:36:52;20.23;;;12.35;;
37231;SDS011;23125;48.156;15.954;2024-03-06T10:39:20;20.08;;;11.98;;
37231;SDS011;23125;48.156;15.954;2024-03-06T10:41:50;18.70;;;11.45;;
37231;SDS011;23125;48.156;15.954;2024-03-06T10:44:28;19.05;;;11.27;;
37231;SDS011;23125;48.156;15.954;2024-03-06T10:47:00;17.60;;;11.55;;
37231;SDS011;23125;48.156;15.954;2024-03-06T10:49:28;20.23;;;11.90;;
37231;SDS011;23125;48.156;15.954;2024-03-06T10:51:59;18.98;;;10.65;;
37231;SDS011;23125;48.156;15.954;2024-03-06T10:54:32;18.70;;;11.43;;
37231;SDS011;23125;48.156;15.954;2024-03-06T10:57:07;18.30;;;10.55;;
37231;SDS011;23125;48.156;15.954;2024-03-06T10:59:35;17.60;;;10.77;;
37231;SDS011;23125;48.156;15.954;2024-03-06T11:02:01;18.17;;;11.48;;
37231;SDS011;23125;48.156;15.954;2024-03-06T11:04:28;19.15;;;10.60;;
37231;SDS011;23125;48.156;15.954;2024-03-06T11:07:02;19.30;;;11.80;;
37231;SDS011;23125;48.156;15.954;2024-03-06T11:09:35;20.15;;;12.57;;
37231;SDS011;23125;48.156;15.954;2024-03-06T11:12:03;20.60;;;12.07;;
37231;SDS011;23125;48.156;15.954;2024-03-06T11:14:32;23.47;;;13.43;;
37231;SDS011;23125;48.156;15.954;2024-03-06T11:17:04;22.95;;;12.73;;
37231;SDS011;23125;48.156;15.954;2024-03-06T11:20:18;20.00;;;12.23;;
37231;SDS011;23125;48.156;15.954;2024-03-06T11:26:22;19.65;;;11.93;;
37231;SDS011;23125;48.156;15.954;2024-03-06T11:28:22;20.40;;;11.77;;
37231;SDS011;23125;48.156;15.954;2024-03-06T11:30:59;16.80;;;11.25;;
37231;SDS011;23125;48.156;15.954;2024-03-06T11:36:15;18.15;;;11.23;;
37231;SDS011;23125;48.156;15.954;2024-03-06T11:38:55;21.92;;;12.02;;
37231;SDS011;23125;48.156;15.954;2024-03-06T11:41:23;20.58;;;12.73;;
37231;SDS011;23125;48.156;15.954;2024-03-06T11:43:50;19.40;;;11.60;;
37231;SDS011;23125;48.156;15.954;2024-03-06T11:46:21;18.88;;;11.35;;
37231;SDS011;23125;48.156;15.954;2024-03-06T11:48:52;18.67;;;10.90;;
37231;SDS011;23125;48.156;15.954;2024-03-06T11:51:24;16.38;;;10.70;;
37231;SDS011;23125;48.156;15.954;2024-03-06T11:53:51;18.00;;;10.98;;
37231;SDS011;23125;48.156;15.954;2024-03-06T11:56:19;18.50;;;11.85;;
37231;SDS011;23125;48.156;15.954;2024-03-06T11:58:46;19.10;;;11.77;;
37231;SDS011;23125;48.156;15.954;2024-03-06T12:01:13;17.05;;;10.57;;
37231;SDS011;23125;48.156;15.954;2024-03-06T12:03:39;19.17;;;11.45;;
37231;SDS011;23125;48.156;15.954;2024-03-06T12:06:07;17.63;;;11.68;;
37231;SDS011;23125;48.156;15.954;2024-03-06T12:08:34;17.92;;;11.27;;
37231;SDS011;23125;48.156;15.954;2024-03-06T12:11:04;20.58;;;12.63;;
37231;SDS011;23125;48.156;15.954;2024-03-06T12:13:30;21.08;;;11.40;;
37231;SDS011;23125;48.156;15.954;2024-03-06T12:15:57;18.13;;;12.32;;
37231;SDS011;23125;48.156;15.954;2024-03-06T12:18:23;17.42;;;10.90;;
37231;SDS011;23125;48.156;15.954;2024-03-06T12:20:50;24.25;;;13.15;;
37231;SDS011;23125;48.156;15.954;2024-03-06T12:23:20;21.38;;;12.73;;
37231;SDS011;23125;48.156;15.954;2024-03-06T12:25:48;23.20;;;13.80;;
37231;SDS011;23125;48.156;15.954;2024-03-06T12:28:14;21.95;;;13.10;;
37231;SDS011;23125;48.156;15.954;2024-03-06T12:30:43;22.23;;;13.02;;
37231;SDS011;23125;48.156;15.954;2024-03-06T12:33:09;20.45;;;12.63;;
37231;SDS011;23125;48.156;15.954;2024-03-06T12:35:40;21.35;;;12.75;;
37231;SDS011;23125;48.156;15.954;2024-03-06T12:38:15;20.52;;;12.35;;
37231;SDS011;23125;48.156;15.954;2024-03-06T12:40:42;20.17;;;12.25;;
37231;SDS011;23125;48.156;15.954;2024-03-06T12:43:08;21.63;;;12.55;;
37231;SDS011;23125;48.156;15.954;2024-03-06T12:45:35;20.77;;;12.55;;
37231;SDS011;23125;48.156;15.954;2024-03-06T12:48:02;21.05;;;12.43;;
37231;SDS011;23125;48.156;15.954;2024-03-06T12:50:30;21.15;;;12.18;;
37231;SDS011;23125;48.156;15.954;2024-03-06T12:52:57;19.45;;;12.52;;
37231;SDS011;23125;48.156;15.954;2024-03-06T12:55:22;21.70;;;12.52;;
37231;SDS011;23125;48.156;15.954;2024-03-06T12:57:48;19.83;;;12.93;;
37231;SDS011;23125;48.156;15.954;2024-03-06T13:00:15;20.77;;;11.85;;
37231;SDS011;23125;48.156;15.954;2024-03-06T13:02:42;19.83;;;11.77;;
37231;SDS011;23125;48.156;15.954;2024-03-06T13:05:09;21.20;;;12.57;;
37231;SDS011;23125;48.156;15.954;2024-03-06T13:07:35;21.42;;;12.38;;
37231;SDS011;23125;48.156;15.954;2024-03-06T13:10:04;18.85;;;11.32;;
37231;SDS011;23125;48.156;15.954;2024-03-06T13:12:34;19.83;;;12.13;;
37231;SDS011;23125;48.156;15.954;2024-03-06T13:14:59;20.48;;;11.70;;
37231;SDS011;23125;48.156;15.954;2024-03-06T13:17:25;21.70;;;12.77;;
37231;SDS011;23125;48.156;15.954;2024-03-06T13:19:51;22.92;;;13.45;;
37231;SDS011;23125;48.156;15.954;2024-03-06T13:22:17;22.67;;;13.27;;
37231;SDS011;23125;48.156;15.954;2024-03-06T13:24:43;25.23;;;13.55;;
37231;SDS011;23125;48.156;15.954;2024-03-06T13:27:08;20.20;;;11.05;;
37231;SDS011;23125;48.156;15.954;2024-03-06T13:29:34;19.80;;;11.35;;
37231;SDS011;23125;48.156;15.954;2024-03-06T13:32:00;18.88;;;10.90;;
37231;SDS011;23125;48.156;15.954;2024-03-06T13:34:26;16.23;;;9.77;;
37231;SDS011;23125;48.156;15.954;2024-03-06T13:36:52;18.67;;;11.60;;
37231;SDS011;23125;48.156;15.954;2024-03-06T13:39:19;16.88;;;10.75;;
37231;SDS011;23125;48.156;15.954;2024-03-06T13:41:44;17.38;;;11.02;;
37231;SDS011;23125;48.156;15.954;2024-03-06T13:44:10;18.95;;;11.43;;
37231;SDS011;23125;48.156;15.954;2024-03-06T13:46:36;18.13;;;10.50;;
37231;SDS011;23125;48.156;15.954;2024-03-06T13:49:02;18.20;;;11.63;;
37231;SDS011;23125;48.156;15.954;2024-03-06T13:51:28;20.83;;;11.70;;
37231;SDS011;23125;48.156;15.954;2024-03-06T13:53:55;19.83;;;11.45;;
37231;SDS011;23125;48.156;15.954;2024-03-06T13:56:21;18.98;;;11.05;;
37231;SDS011;23125;48.156;15.954;2024-03-06T13:58:47;18.65;;;10.88;;
37231;SDS011;23125;48.156;15.954;2024-03-06T14:01:13;18.95;;;11.30;;
37231;SDS011;23125;48.156;15.954;2024-03-06T14:03:40;20.33;;;10.63;;
37231;SDS011;23125;48.156;15.954;2024-03-06T14:06:06;18.92;;;11.20;;
37231;SDS011;23125;48.156;15.954;2024-03-06T14:08:34;20.25;;;11.52;;
37231;SDS011;23125;48.156;15.954;2024-03-06T14:11:01;20.27;;;11.27;;
37231;SDS011;23125;48.156;15.954;2024-03-06T14:13:30;21.17;;;11.60;;
37231;SDS011;23125;48.156;15.954;2024-03-06T14:15:56;18.73;;;10.73;;
37231;SDS011;23125;48.156;15.954;2024-03-06T14:18:25;18.92;;;11.55;;
37231;SDS011;23125;48.156;15.954;2024-03-06T14:20:51;19.05;;;10.40;;
37231;SDS011;23125;48.156;15.954;2024-03-06T14:23:17;21.00;;;11.65;;